Details From KTIW - TACOMA NARROWS
To CZST - STEWART
Flight Number -
Tags generated
Created
Modified
Stats Distance 615 nm / 1,139 km
Max Altitude 34,000 ft / 10,363 m
Waypoints 9
Social Downloads 3
Likes 0
Share VATSIM

Download

Looking for another format? Having issues loading an existing format? Contact us
Advertisement - Login to hide

Notes

Basic altitude profile: - Ascent Rate: 2500ft/min - Ascent Speed: 250kts - Cruise Altitude: 35000ft - Cruise Speed: 420kts - Descent Rate: 1500ft/min - Descent Speed: 250kts Options: - Use NATs: yes - Use PACOTS: yes - Use low airways: yes - Use high airways: yes

Route

KTIW TOU J523 YZT V347 YJQ B25 XT CZST

ID Type Via Altitude Latitude Longitude Leg Dist Tot Dist Heading (true) Name
O KTIW APT - 0 ft / 0 m 47.26793˚ -122.57811˚ - 0 nm - TACOMA NARROWS
TOU VOR - 34,000 ft / 10,363 m 48.29989˚ -124.62706˚ 103 nm 103 nm 308° / 306° TATOOSH VORTAC
TOU15 FIX J523 (AWY-HI) 34,000 ft / 10,363 m 48.50194˚ -124.84815˚ 14 nm 118 nm 324° / 324° -
INHAM FIX J523 (AWY-HI) 34,000 ft / 10,363 m 49.05217˚ -125.45508˚ 40 nm 159 nm 324° / 324° -
YZT VOR J523 (AWY-HI) 34,000 ft / 10,363 m 50.68425˚ -127.36519˚ 122 nm 281 nm 324° / 322° PORT HARDY VOR-DME
YJQ NDB V347 (AWY-LO) 18,000 ft / 5,486 m 52.18522˚ -128.11353˚ 94 nm 376 nm 343° / 342° BELLA BELLA NDB
ZKI NDB B25 (AWY-LO) 18,000 ft / 5,486 m 54.05411˚ -128.67022˚ 114 nm 490 nm 350° / 350° KITIMAT NDB
XT NDB B25 (AWY-LO) 17,000 ft / 5,182 m 54.37400˚ -128.58311˚ 19 nm 509 nm 9° / 9° TERRACE NDB
O CZST APT - 0 ft / 0 m 55.93542˚ -129.98403˚ 105 nm 615 nm 333° / 332° STEWART

Altitude Profile

Advertisement - Login to hide

Weather


0- 5 10 15 20 25 30 35+ Temperature / ° C

Clouds and Precipitation
Forecast for 2017-12-16 00:00 UTC. Updated 11 minutes ago

Ground ~20,000 ft ~40,000 ft Winds

KTIW

Details ICAO KTIW (TIW)
Name TACOMA NARROWS
Region United States
Timezone America/Los_Angeles (UTC-8.0)
Stats Elevation 292 ft / 89 m (AMSL)
Location 47.267930° -122.578113°
Runways 1
Magnetic Variation 15.689° E

METAR

KTIW 152300Z 19004KT 4SM BR OVC004 05/05 A3019 RMK AO2 T00500050

Decode

TAF

Not found

Departure Runways

ID Width Length Bearing (true) Bearing (mag) Surface Threshold Offset Overrun Length
17 150 ft / 46 m 5,004 ft / 1,525 m 186.99° 171.30° Asphalt 0 ft / 0 m 0 ft / 0 m
35 150 ft / 46 m 5,004 ft / 1,525 m 6.99° 351.30° Asphalt 0 ft / 0 m 0 ft / 0 m

CZST

Details ICAO CZST
Name STEWART
Region Canada
Timezone America/Vancouver (UTC-8.0)
Stats Elevation 24 ft / 7 m (AMSL)
Location 55.935417° -129.984029°
Runways 1
Magnetic Variation 18.686° E

METAR

CZST 152329Z 21006KT 180V260 10SM -RA BKN012 OVC045 04/02 A3010 RMK SC6SC2 SLP193

Decode

TAF

Not found

Destination Runways

ID Width Length Bearing (true) Bearing (mag) Surface Threshold Offset Overrun Length
18 75 ft / 23 m 3,873 ft / 1,180 m 194.43° 175.74° Asphalt 0 ft / 0 m 0 ft / 0 m
36 75 ft / 23 m 3,873 ft / 1,180 m 14.42° 355.73° Asphalt 0 ft / 0 m 0 ft / 0 m